Terminal Aerodrome Forecast
Issued by NWS

Home | Current Version | Previous Version | Text Only | Print | Product List | Glossary Off
Versions: 1 2 3 4 5 6 7 8 9 10 11 12 13 14 15 16

000
FTUS42 KMHX 152338
TAFPGV
TAF
KPGV 152338Z 1600/1624 07005KT P6SM SCT020 BKN130
     FM160600 07006KT P6SM OVC100
     FM161500 05005KT P6SM OVC030
      AMD LTD TO CLD VIS AND WIND=

USA.gov is the U.S. government's official web portal to all federal, state and local government web resources and services.